sensor_id;sensor_type;location;lat;lon;timestamp;P1;durP1;ratioP1;P2;durP2;ratioP2
50585;SDS011;36542;51.700;8.846;2023-08-21T00:00:05;5.60;;;5.00;;
50585;SDS011;36542;51.700;8.846;2023-08-21T00:02:32;10.33;;;5.57;;
50585;SDS011;36542;51.700;8.846;2023-08-21T00:04:57;11.47;;;6.00;;
50585;SDS011;36542;51.700;8.846;2023-08-21T00:07:23;8.60;;;6.03;;
50585;SDS011;36542;51.700;8.846;2023-08-21T00:09:48;11.00;;;6.03;;
50585;SDS011;36542;51.700;8.846;2023-08-21T00:12:15;10.30;;;6.27;;
50585;SDS011;36542;51.700;8.846;2023-08-21T00:14:40;8.70;;;6.00;;
50585;SDS011;36542;51.700;8.846;2023-08-21T00:17:06;7.23;;;5.30;;
50585;SDS011;36542;51.700;8.846;2023-08-21T00:19:32;11.83;;;5.80;;
50585;SDS011;36542;51.700;8.846;2023-08-21T00:21:57;7.70;;;5.37;;
50585;SDS011;36542;51.700;8.846;2023-08-21T00:24:23;8.70;;;5.17;;
50585;SDS011;36542;51.700;8.846;2023-08-21T00:26:48;6.67;;;5.20;;
50585;SDS011;36542;51.700;8.846;2023-08-21T00:29:14;11.20;;;5.03;;
50585;SDS011;36542;51.700;8.846;2023-08-21T00:31:39;8.13;;;4.40;;
50585;SDS011;36542;51.700;8.846;2023-08-21T00:34:05;4.67;;;4.30;;
50585;SDS011;36542;51.700;8.846;2023-08-21T00:36:31;6.40;;;5.10;;
50585;SDS011;36542;51.700;8.846;2023-08-21T00:38:56;8.27;;;5.20;;
50585;SDS011;36542;51.700;8.846;2023-08-21T00:41:22;10.20;;;5.10;;
50585;SDS011;36542;51.700;8.846;2023-08-21T00:43:47;8.93;;;4.67;;
50585;SDS011;36542;51.700;8.846;2023-08-21T00:46:13;7.57;;;4.37;;
50585;SDS011;36542;51.700;8.846;2023-08-21T00:48:39;9.53;;;4.80;;
50585;SDS011;36542;51.700;8.846;2023-08-21T00:51:04;8.63;;;5.00;;
50585;SDS011;36542;51.700;8.846;2023-08-21T00:53:31;6.03;;;4.80;;
50585;SDS011;36542;51.700;8.846;2023-08-21T00:55:57;6.37;;;4.10;;
50585;SDS011;36542;51.700;8.846;2023-08-21T00:58:23;5.37;;;3.80;;
50585;SDS011;36542;51.700;8.846;2023-08-21T01:00:49;4.73;;;3.70;;
50585;SDS011;36542;51.700;8.846;2023-08-21T01:03:17;5.93;;;3.20;;
50585;SDS011;36542;51.700;8.846;2023-08-21T01:05:43;5.90;;;3.17;;
50585;SDS011;36542;51.700;8.846;2023-08-21T01:08:21;6.70;;;3.43;;
50585;SDS011;36542;51.700;8.846;2023-08-21T01:14:05;5.97;;;3.40;;
50585;SDS011;36542;51.700;8.846;2023-08-21T01:16:37;7.23;;;3.83;;
50585;SDS011;36542;51.700;8.846;2023-08-21T01:19:04;7.00;;;3.37;;
50585;SDS011;36542;51.700;8.846;2023-08-21T01:21:49;5.87;;;3.57;;
50585;SDS011;36542;51.700;8.846;2023-08-21T01:24:15;5.83;;;2.80;;
50585;SDS011;36542;51.700;8.846;2023-08-21T01:26:44;6.27;;;3.10;;
50585;SDS011;36542;51.700;8.846;2023-08-21T01:29:10;7.47;;;3.00;;
50585;SDS011;36542;51.700;8.846;2023-08-21T01:31:35;5.40;;;3.13;;
50585;SDS011;36542;51.700;8.846;2023-08-21T01:34:04;5.60;;;3.03;;
50585;SDS011;36542;51.700;8.846;2023-08-21T01:36:33;4.00;;;3.17;;
50585;SDS011;36542;51.700;8.846;2023-08-21T01:38:59;3.67;;;3.37;;
50585;SDS011;36542;51.700;8.846;2023-08-21T01:41:25;7.00;;;3.40;;
50585;SDS011;36542;51.700;8.846;2023-08-21T01:43:50;3.50;;;3.13;;
50585;SDS011;36542;51.700;8.846;2023-08-21T01:46:16;6.27;;;3.20;;
50585;SDS011;36542;51.700;8.846;2023-08-21T01:48:42;4.10;;;3.33;;
50585;SDS011;36542;51.700;8.846;2023-08-21T01:51:07;5.57;;;2.90;;
50585;SDS011;36542;51.700;8.846;2023-08-21T01:53:33;4.50;;;3.00;;
50585;SDS011;36542;51.700;8.846;2023-08-21T01:55:58;9.53;;;3.20;;
50585;SDS011;36542;51.700;8.846;2023-08-21T01:58:24;5.37;;;2.83;;
50585;SDS011;36542;51.700;8.846;2023-08-21T02:00:49;5.10;;;2.87;;
50585;SDS011;36542;51.700;8.846;2023-08-21T02:03:15;5.33;;;3.17;;
50585;SDS011;36542;51.700;8.846;2023-08-21T02:05:40;7.73;;;3.40;;
50585;SDS011;36542;51.700;8.846;2023-08-21T02:08:06;5.97;;;2.83;;
50585;SDS011;36542;51.700;8.846;2023-08-21T02:10:34;4.17;;;2.90;;
50585;SDS011;36542;51.700;8.846;2023-08-21T02:12:59;4.17;;;3.13;;
50585;SDS011;36542;51.700;8.846;2023-08-21T02:15:25;5.13;;;3.23;;
50585;SDS011;36542;51.700;8.846;2023-08-21T02:17:50;6.70;;;3.37;;
50585;SDS011;36542;51.700;8.846;2023-08-21T02:20:16;6.63;;;3.40;;
50585;SDS011;36542;51.700;8.846;2023-08-21T02:22:41;4.33;;;2.77;;
50585;SDS011;36542;51.700;8.846;2023-08-21T02:25:07;6.27;;;2.83;;
50585;SDS011;36542;51.700;8.846;2023-08-21T02:27:33;5.10;;;2.90;;
50585;SDS011;36542;51.700;8.846;2023-08-21T02:29:58;5.43;;;3.37;;
50585;SDS011;36542;51.700;8.846;2023-08-21T02:32:24;5.27;;;3.07;;
50585;SDS011;36542;51.700;8.846;2023-08-21T02:34:49;3.30;;;2.93;;
50585;SDS011;36542;51.700;8.846;2023-08-21T02:37:15;5.47;;;3.40;;
50585;SDS011;36542;51.700;8.846;2023-08-21T02:39:40;7.00;;;2.70;;
50585;SDS011;36542;51.700;8.846;2023-08-21T02:42:06;3.20;;;2.87;;
50585;SDS011;36542;51.700;8.846;2023-08-21T02:44:31;8.47;;;3.10;;
50585;SDS011;36542;51.700;8.846;2023-08-21T02:46:57;6.20;;;2.90;;
50585;SDS011;36542;51.700;8.846;2023-08-21T02:49:22;5.40;;;3.37;;
50585;SDS011;36542;51.700;8.846;2023-08-21T02:51:48;7.03;;;3.37;;
50585;SDS011;36542;51.700;8.846;2023-08-21T02:54:13;5.03;;;2.77;;
50585;SDS011;36542;51.700;8.846;2023-08-21T02:56:39;6.70;;;2.73;;
50585;SDS011;36542;51.700;8.846;2023-08-21T02:59:04;4.90;;;2.60;;
50585;SDS011;36542;51.700;8.846;2023-08-21T03:01:30;5.20;;;2.20;;
50585;SDS011;36542;51.700;8.846;2023-08-21T03:03:55;5.70;;;2.93;;
50585;SDS011;36542;51.700;8.846;2023-08-21T03:06:21;5.93;;;2.97;;
50585;SDS011;36542;51.700;8.846;2023-08-21T03:08:46;5.13;;;2.70;;
50585;SDS011;36542;51.700;8.846;2023-08-21T03:11:12;8.57;;;3.03;;
50585;SDS011;36542;51.700;8.846;2023-08-21T03:13:38;6.53;;;2.70;;
50585;SDS011;36542;51.700;8.846;2023-08-21T03:16:03;5.77;;;3.03;;
50585;SDS011;36542;51.700;8.846;2023-08-21T03:18:30;5.60;;;3.30;;
50585;SDS011;36542;51.700;8.846;2023-08-21T03:20:56;5.00;;;3.67;;
50585;SDS011;36542;51.700;8.846;2023-08-21T03:23:22;7.00;;;3.70;;
50585;SDS011;36542;51.700;8.846;2023-08-21T03:25:48;7.57;;;4.10;;
50585;SDS011;36542;51.700;8.846;2023-08-21T03:28:16;9.80;;;4.17;;
50585;SDS011;36542;51.700;8.846;2023-08-21T03:30:42;5.63;;;4.53;;
50585;SDS011;36542;51.700;8.846;2023-08-21T03:33:07;6.80;;;4.57;;
50585;SDS011;36542;51.700;8.846;2023-08-21T03:35:33;4.27;;;3.70;;
50585;SDS011;36542;51.700;8.846;2023-08-21T03:37:59;6.63;;;3.53;;
50585;SDS011;36542;51.700;8.846;2023-08-21T03:40:24;5.63;;;3.80;;
50585;SDS011;36542;51.700;8.846;2023-08-21T03:42:50;6.17;;;3.70;;
50585;SDS011;36542;51.700;8.846;2023-08-21T03:45:15;6.67;;;4.63;;
50585;SDS011;36542;51.700;8.846;2023-08-21T03:47:41;5.73;;;4.10;;
50585;SDS011;36542;51.700;8.846;2023-08-21T03:50:06;3.93;;;3.50;;
50585;SDS011;36542;51.700;8.846;2023-08-21T03:52:32;6.47;;;3.80;;
50585;SDS011;36542;51.700;8.846;2023-08-21T03:54:58;7.13;;;4.20;;
50585;SDS011;36542;51.700;8.846;2023-08-21T03:57:23;7.80;;;4.10;;
50585;SDS011;36542;51.700;8.846;2023-08-21T03:59:49;7.10;;;3.70;;
50585;SDS011;36542;51.700;8.846;2023-08-21T04:02:15;9.63;;;4.10;;
50585;SDS011;36542;51.700;8.846;2023-08-21T04:04:40;8.67;;;3.90;;
50585;SDS011;36542;51.700;8.846;2023-08-21T04:07:05;6.63;;;3.70;;
50585;SDS011;36542;51.700;8.846;2023-08-21T04:09:31;8.00;;;3.73;;
50585;SDS011;36542;51.700;8.846;2023-08-21T04:11:56;9.20;;;3.97;;
50585;SDS011;36542;51.700;8.846;2023-08-21T04:14:22;5.10;;;4.20;;
50585;SDS011;36542;51.700;8.846;2023-08-21T04:16:48;5.27;;;4.40;;
50585;SDS011;36542;51.700;8.846;2023-08-21T04:19:13;5.13;;;4.20;;
50585;SDS011;36542;51.700;8.846;2023-08-21T04:21:39;7.83;;;3.60;;
50585;SDS011;36542;51.700;8.846;2023-08-21T04:24:04;4.37;;;3.33;;
50585;SDS011;36542;51.700;8.846;2023-08-21T04:26:30;6.43;;;4.20;;
50585;SDS011;36542;51.700;8.846;2023-08-21T04:28:55;6.23;;;3.90;;
50585;SDS011;36542;51.700;8.846;2023-08-21T04:31:21;7.23;;;3.97;;
50585;SDS011;36542;51.700;8.846;2023-08-21T04:33:46;6.50;;;3.83;;
50585;SDS011;36542;51.700;8.846;2023-08-21T04:36:15;7.77;;;3.63;;
50585;SDS011;36542;51.700;8.846;2023-08-21T04:38:42;4.87;;;3.63;;
50585;SDS011;36542;51.700;8.846;2023-08-21T04:41:08;4.57;;;3.60;;
50585;SDS011;36542;51.700;8.846;2023-08-21T04:43:34;6.43;;;4.03;;
50585;SDS011;36542;51.700;8.846;2023-08-21T04:45:59;4.57;;;3.80;;
50585;SDS011;36542;51.700;8.846;2023-08-21T04:48:25;6.90;;;3.63;;
50585;SDS011;36542;51.700;8.846;2023-08-21T04:50:50;8.80;;;3.80;;
50585;SDS011;36542;51.700;8.846;2023-08-21T04:53:16;4.40;;;3.23;;
50585;SDS011;36542;51.700;8.846;2023-08-21T04:55:41;5.77;;;3.50;;
50585;SDS011;36542;51.700;8.846;2023-08-21T04:58:08;8.10;;;3.43;;
50585;SDS011;36542;51.700;8.846;2023-08-21T05:00:34;3.83;;;2.50;;
50585;SDS011;36542;51.700;8.846;2023-08-21T05:03:00;6.37;;;2.97;;
50585;SDS011;36542;51.700;8.846;2023-08-21T05:05:25;5.33;;;3.17;;
50585;SDS011;36542;51.700;8.846;2023-08-21T05:07:51;6.00;;;2.67;;
50585;SDS011;36542;51.700;8.846;2023-08-21T05:10:18;6.43;;;2.90;;
50585;SDS011;36542;51.700;8.846;2023-08-21T05:12:44;5.90;;;3.23;;
50585;SDS011;36542;51.700;8.846;2023-08-21T05:15:10;5.43;;;2.87;;
50585;SDS011;36542;51.700;8.846;2023-08-21T05:17:35;6.73;;;3.33;;
50585;SDS011;36542;51.700;8.846;2023-08-21T05:20:01;5.17;;;3.00;;
50585;SDS011;36542;51.700;8.846;2023-08-21T05:22:28;7.27;;;2.90;;
50585;SDS011;36542;51.700;8.846;2023-08-21T05:24:53;6.83;;;3.20;;
50585;SDS011;36542;51.700;8.846;2023-08-21T05:27:19;5.47;;;3.60;;
50585;SDS011;36542;51.700;8.846;2023-08-21T05:29:44;6.47;;;3.27;;
50585;SDS011;36542;51.700;8.846;2023-08-21T05:35:04;2.87;;;2.57;;
50585;SDS011;36542;51.700;8.846;2023-08-21T05:37:30;8.10;;;3.30;;
50585;SDS011;36542;51.700;8.846;2023-08-21T05:39:56;6.47;;;2.97;;
50585;SDS011;36542;51.700;8.846;2023-08-21T05:42:21;9.47;;;3.00;;
50585;SDS011;36542;51.700;8.846;2023-08-21T05:44:47;5.87;;;2.80;;
50585;SDS011;36542;51.700;8.846;2023-08-21T05:47:12;6.43;;;2.77;;
50585;SDS011;36542;51.700;8.846;2023-08-21T05:49:38;7.63;;;2.37;;
50585;SDS011;36542;51.700;8.846;2023-08-21T05:52:03;4.78;;;2.00;;
50585;SDS011;36542;51.700;8.846;2023-08-21T05:54:29;5.38;;;2.38;;
50585;SDS011;36542;51.700;8.846;2023-08-21T05:56:55;4.80;;;2.28;;
50585;SDS011;36542;51.700;8.846;2023-08-21T05:59:30;5.47;;;2.08;;
50585;SDS011;36542;51.700;8.846;2023-08-21T06:01:56;4.43;;;2.47;;
50585;SDS011;36542;51.700;8.846;2023-08-21T06:04:22;6.13;;;2.50;;
50585;SDS011;36542;51.700;8.846;2023-08-21T06:06:47;5.65;;;2.35;;
50585;SDS011;36542;51.700;8.846;2023-08-21T06:09:13;2.50;;;2.08;;
50585;SDS011;36542;51.700;8.846;2023-08-21T06:11:38;2.45;;;2.25;;
50585;SDS011;36542;51.700;8.846;2023-08-21T06:14:04;6.40;;;2.20;;
50585;SDS011;36542;51.700;8.846;2023-08-21T06:16:29;5.95;;;2.15;;
50585;SDS011;36542;51.700;8.846;2023-08-21T06:18:55;6.55;;;1.90;;
50585;SDS011;36542;51.700;8.846;2023-08-21T06:21:20;9.00;;;2.30;;
50585;SDS011;36542;51.700;8.846;2023-08-21T06:23:46;4.60;;;2.33;;
50585;SDS011;36542;51.700;8.846;2023-08-21T06:26:12;4.43;;;1.88;;
50585;SDS011;36542;51.700;8.846;2023-08-21T06:28:37;4.10;;;1.90;;
50585;SDS011;36542;51.700;8.846;2023-08-21T06:31:03;2.92;;;1.90;;
50585;SDS011;36542;51.700;8.846;2023-08-21T06:33:32;2.80;;;1.80;;
50585;SDS011;36542;51.700;8.846;2023-08-21T06:35:58;5.88;;;1.80;;
50585;SDS011;36542;51.700;8.846;2023-08-21T06:38:23;8.38;;;2.13;;
50585;SDS011;36542;51.700;8.846;2023-08-21T06:40:49;2.30;;;1.73;;
50585;SDS011;36542;51.700;8.846;2023-08-21T06:43:16;5.53;;;2.15;;
50585;SDS011;36542;51.700;8.846;2023-08-21T06:45:41;2.97;;;1.85;;
50585;SDS011;36542;51.700;8.846;2023-08-21T06:48:07;3.10;;;1.48;;
50585;SDS011;36542;51.700;8.846;2023-08-21T06:50:33;5.18;;;1.88;;
50585;SDS011;36542;51.700;8.846;2023-08-21T06:52:58;2.85;;;1.52;;
50585;SDS011;36542;51.700;8.846;2023-08-21T06:55:24;4.78;;;1.90;;
50585;SDS011;36542;51.700;8.846;2023-08-21T06:57:49;6.18;;;1.80;;
50585;SDS011;36542;51.700;8.846;2023-08-21T07:00:15;2.85;;;1.60;;
50585;SDS011;36542;51.700;8.846;2023-08-21T07:02:40;2.50;;;1.50;;
50585;SDS011;36542;51.700;8.846;2023-08-21T07:05:06;4.60;;;1.55;;
50585;SDS011;36542;51.700;8.846;2023-08-21T07:07:33;5.75;;;1.80;;
50585;SDS011;36542;51.700;8.846;2023-08-21T07:09:58;3.13;;;1.52;;
50585;SDS011;36542;51.700;8.846;2023-08-21T07:12:24;6.53;;;1.88;;
50585;SDS011;36542;51.700;8.846;2023-08-21T07:14:49;3.20;;;1.85;;
50585;SDS011;36542;51.700;8.846;2023-08-21T07:17:15;2.25;;;1.40;;
50585;SDS011;36542;51.700;8.846;2023-08-21T07:19:40;2.45;;;1.30;;
50585;SDS011;36542;51.700;8.846;2023-08-21T07:22:06;2.40;;;1.42;;
50585;SDS011;36542;51.700;8.846;2023-08-21T07:24:31;2.22;;;1.50;;
50585;SDS011;36542;51.700;8.846;2023-08-21T07:26:57;2.65;;;1.40;;
50585;SDS011;36542;51.700;8.846;2023-08-21T07:29:22;4.78;;;1.42;;
50585;SDS011;36542;51.700;8.846;2023-08-21T07:31:48;3.03;;;1.33;;
50585;SDS011;36542;51.700;8.846;2023-08-21T07:34:13;4.82;;;1.55;;
50585;SDS011;36542;51.700;8.846;2023-08-21T07:36:39;3.13;;;1.42;;
50585;SDS011;36542;51.700;8.846;2023-08-21T07:39:04;5.32;;;1.42;;
50585;SDS011;36542;51.700;8.846;2023-08-21T07:41:30;4.97;;;1.52;;
50585;SDS011;36542;51.700;8.846;2023-08-21T07:43:56;3.00;;;1.40;;
50585;SDS011;36542;51.700;8.846;2023-08-21T07:46:21;3.38;;;1.45;;
50585;SDS011;36542;51.700;8.846;2023-08-21T07:48:46;2.90;;;1.38;;
50585;SDS011;36542;51.700;8.846;2023-08-21T07:51:12;2.83;;;1.73;;
50585;SDS011;36542;51.700;8.846;2023-08-21T07:53:38;5.03;;;1.85;;
50585;SDS011;36542;51.700;8.846;2023-08-21T07:56:04;3.83;;;1.50;;
50585;SDS011;36542;51.700;8.846;2023-08-21T07:58:30;3.95;;;1.40;;
50585;SDS011;36542;51.700;8.846;2023-08-21T08:00:56;2.70;;;1.30;;
50585;SDS011;36542;51.700;8.846;2023-08-21T08:03:22;3.25;;;1.25;;
50585;SDS011;36542;51.700;8.846;2023-08-21T08:05:47;1.85;;;1.20;;
50585;SDS011;36542;51.700;8.846;2023-08-21T08:08:13;2.70;;;1.20;;
50585;SDS011;36542;51.700;8.846;2023-08-21T08:10:39;4.78;;;1.58;;
50585;SDS011;36542;51.700;8.846;2023-08-21T08:13:05;4.18;;;1.50;;
50585;SDS011;36542;51.700;8.846;2023-08-21T08:15:31;3.10;;;1.58;;
50585;SDS011;36542;51.700;8.846;2023-08-21T08:17:58;1.15;;;1.05;;
50585;SDS011;36542;51.700;8.846;2023-08-21T08:20:24;2.95;;;1.30;;
50585;SDS011;36542;51.700;8.846;2023-08-21T08:22:50;3.60;;;1.63;;
50585;SDS011;36542;51.700;8.846;2023-08-21T08:25:15;2.42;;;1.33;;
50585;SDS011;36542;51.700;8.846;2023-08-21T08:27:42;3.70;;;1.10;;
50585;SDS011;36542;51.700;8.846;2023-08-21T08:30:08;2.95;;;1.45;;
50585;SDS011;36542;51.700;8.846;2023-08-21T08:32:34;1.73;;;1.27;;
50585;SDS011;36542;51.700;8.846;2023-08-21T08:34:59;2.95;;;1.50;;
50585;SDS011;36542;51.700;8.846;2023-08-21T08:37:25;3.08;;;1.52;;
50585;SDS011;36542;51.700;8.846;2023-08-21T08:39:50;4.40;;;1.40;;
50585;SDS011;36542;51.700;8.846;2023-08-21T08:42:16;3.72;;;1.40;;
50585;SDS011;36542;51.700;8.846;2023-08-21T08:44:42;2.47;;;1.50;;
50585;SDS011;36542;51.700;8.846;2023-08-21T08:47:08;2.83;;;1.50;;
50585;SDS011;36542;51.700;8.846;2023-08-21T08:49:36;3.78;;;1.15;;
50585;SDS011;36542;51.700;8.846;2023-08-21T08:52:02;2.78;;;1.50;;
50585;SDS011;36542;51.700;8.846;2023-08-21T08:54:28;3.05;;;1.35;;
50585;SDS011;36542;51.700;8.846;2023-08-21T08:56:54;4.78;;;1.33;;
50585;SDS011;36542;51.700;8.846;2023-08-21T08:59:20;3.42;;;1.50;;
50585;SDS011;36542;51.700;8.846;2023-08-21T09:01:46;1.90;;;1.33;;
50585;SDS011;36542;51.700;8.846;2023-08-21T09:04:11;3.53;;;1.45;;
50585;SDS011;36542;51.700;8.846;2023-08-21T09:06:37;4.82;;;1.10;;
50585;SDS011;36542;51.700;8.846;2023-08-21T09:09:03;1.77;;;0.98;;
50585;SDS011;36542;51.700;8.846;2023-08-21T09:11:32;5.55;;;1.45;;
50585;SDS011;36542;51.700;8.846;2023-08-21T09:13:58;3.13;;;1.20;;
50585;SDS011;36542;51.700;8.846;2023-08-21T09:16:24;2.95;;;1.38;;
50585;SDS011;36542;51.700;8.846;2023-08-21T09:18:51;3.08;;;1.30;;
50585;SDS011;36542;51.700;8.846;2023-08-21T09:21:21;5.43;;;1.40;;
50585;SDS011;36542;51.700;8.846;2023-08-21T09:23:51;2.08;;;1.30;;
50585;SDS011;36542;51.700;8.846;2023-08-21T09:26:24;2.15;;;1.45;;
50585;SDS011;36542;51.700;8.846;2023-08-21T09:28:51;3.15;;;1.52;;
50585;SDS011;36542;51.700;8.846;2023-08-21T09:31:29;2.72;;;1.60;;
50585;SDS011;36542;51.700;8.846;2023-08-21T09:33:56;2.70;;;1.88;;
50585;SDS011;36542;51.700;8.846;2023-08-21T09:36:26;4.47;;;1.65;;
50585;SDS011;36542;51.700;8.846;2023-08-21T09:38:54;1.88;;;1.58;;
50585;SDS011;36542;51.700;8.846;2023-08-21T09:41:20;4.45;;;1.70;;
50585;SDS011;36542;51.700;8.846;2023-08-21T09:43:46;2.80;;;1.80;;
50585;SDS011;36542;51.700;8.846;2023-08-21T09:46:15;3.45;;;1.70;;
50585;SDS011;36542;51.700;8.846;2023-08-21T09:48:41;2.35;;;1.60;;
50585;SDS011;36542;51.700;8.846;2023-08-21T09:51:09;6.30;;;1.80;;
50585;SDS011;36542;51.700;8.846;2023-08-21T09:53:35;4.00;;;2.03;;
50585;SDS011;36542;51.700;8.846;2023-08-21T09:56:00;3.38;;;1.75;;
50585;SDS011;36542;51.700;8.846;2023-08-21T09:58:28;3.10;;;1.88;;
50585;SDS011;36542;51.700;8.846;2023-08-21T10:00:56;3.42;;;1.95;;
50585;SDS011;36542;51.700;8.846;2023-08-21T10:03:22;3.05;;;1.75;;
50585;SDS011;36542;51.700;8.846;2023-08-21T10:05:48;3.85;;;1.80;;
50585;SDS011;36542;51.700;8.846;2023-08-21T10:08:15;7.25;;;2.13;;
50585;SDS011;36542;51.700;8.846;2023-08-21T10:10:46;3.72;;;1.90;;
50585;SDS011;36542;51.700;8.846;2023-08-21T10:13:11;5.00;;;2.00;;
50585;SDS011;36542;51.700;8.846;2023-08-21T10:15:37;2.47;;;1.70;;
50585;SDS011;36542;51.700;8.846;2023-08-21T10:21:18;2.85;;;2.25;;
50585;SDS011;36542;51.700;8.846;2023-08-21T10:23:48;5.28;;;2.25;;
50585;SDS011;36542;51.700;8.846;2023-08-21T10:26:15;3.13;;;2.13;;
50585;SDS011;36542;51.700;8.846;2023-08-21T10:31:28;3.80;;;2.25;;
50585;SDS011;36542;51.700;8.846;2023-08-21T10:34:20;4.65;;;2.85;;
50585;SDS011;36542;51.700;8.846;2023-08-21T10:39:15;4.10;;;2.20;;
50585;SDS011;36542;51.700;8.846;2023-08-21T10:41:52;4.07;;;2.20;;
50585;SDS011;36542;51.700;8.846;2023-08-21T10:44:18;2.67;;;2.10;;
50585;SDS011;36542;51.700;8.846;2023-08-21T10:47:12;5.47;;;2.30;;
50585;SDS011;36542;51.700;8.846;2023-08-21T10:49:41;3.85;;;2.50;;
50585;SDS011;36542;51.700;8.846;2023-08-21T10:52:08;3.38;;;2.55;;
50585;SDS011;36542;51.700;8.846;2023-08-21T10:54:47;5.72;;;2.72;;
50585;SDS011;36542;51.700;8.846;2023-08-21T10:57:14;4.65;;;2.63;;
50585;SDS011;36542;51.700;8.846;2023-08-21T10:59:53;3.45;;;2.72;;
50585;SDS011;36542;51.700;8.846;2023-08-21T11:02:29;7.97;;;3.13;;
50585;SDS011;36542;51.700;8.846;2023-08-21T11:04:55;6.90;;;3.28;;
50585;SDS011;36542;51.700;8.846;2023-08-21T11:07:21;3.78;;;2.50;;
50585;SDS011;36542;51.700;8.846;2023-08-21T11:09:48;2.97;;;2.30;;
50585;SDS011;36542;51.700;8.846;2023-08-21T11:12:15;4.10;;;2.72;;
50585;SDS011;36542;51.700;8.846;2023-08-21T11:14:42;5.22;;;3.03;;
50585;SDS011;36542;51.700;8.846;2023-08-21T11:17:09;3.53;;;3.13;;
50585;SDS011;36542;51.700;8.846;2023-08-21T11:19:35;4.82;;;3.28;;
50585;SDS011;36542;51.700;8.846;2023-08-21T11:22:02;5.22;;;3.20;;
50585;SDS011;36542;51.700;8.846;2023-08-21T11:24:39;5.57;;;3.25;;
50585;SDS011;36542;51.700;8.846;2023-08-21T11:27:09;5.70;;;3.35;;
50585;SDS011;36542;51.700;8.846;2023-08-21T11:29:36;3.35;;;3.05;;
50585;SDS011;36542;51.700;8.846;2023-08-21T11:34:46;4.93;;;3.17;;
50585;SDS011;36542;51.700;8.846;2023-08-21T11:37:13;5.68;;;2.58;;
50585;SDS011;36542;51.700;8.846;2023-08-21T11:39:45;4.93;;;3.20;;
50585;SDS011;36542;51.700;8.846;2023-08-21T11:42:13;3.90;;;2.90;;
50585;SDS011;36542;51.700;8.846;2023-08-21T11:44:39;3.90;;;3.00;;
50585;SDS011;36542;51.700;8.846;2023-08-21T11:47:09;4.78;;;3.60;;
50585;SDS011;36542;51.700;8.846;2023-08-21T11:49:39;5.00;;;3.80;;
50585;SDS011;36542;51.700;8.846;2023-08-21T11:52:06;6.32;;;3.75;;
50585;SDS011;36542;51.700;8.846;2023-08-21T11:54:33;6.20;;;4.03;;
50585;SDS011;36542;51.700;8.846;2023-08-21T11:57:00;7.72;;;3.72;;
50585;SDS011;36542;51.700;8.846;2023-08-21T11:59:29;5.45;;;3.45;;
50585;SDS011;36542;51.700;8.846;2023-08-21T12:01:55;8.60;;;3.88;;
50585;SDS011;36542;51.700;8.846;2023-08-21T12:04:20;4.63;;;3.10;;
50585;SDS011;36542;51.700;8.846;2023-08-21T12:06:46;7.63;;;3.20;;
50585;SDS011;36542;51.700;8.846;2023-08-21T12:09:11;4.85;;;2.65;;
50585;SDS011;36542;51.700;8.846;2023-08-21T12:11:37;6.70;;;3.38;;
50585;SDS011;36542;51.700;8.846;2023-08-21T12:14:05;6.57;;;3.08;;
50585;SDS011;36542;51.700;8.846;2023-08-21T12:16:31;5.60;;;3.15;;
50585;SDS011;36542;51.700;8.846;2023-08-21T12:18:57;3.85;;;3.10;;
50585;SDS011;36542;51.700;8.846;2023-08-21T12:21:25;5.95;;;3.45;;
50585;SDS011;36542;51.700;8.846;2023-08-21T12:23:51;4.20;;;2.88;;
50585;SDS011;36542;51.700;8.846;2023-08-21T12:26:16;9.40;;;3.35;;
50585;SDS011;36542;51.700;8.846;2023-08-21T12:28:49;7.25;;;3.53;;
50585;SDS011;36542;51.700;8.846;2023-08-21T12:31:15;4.82;;;3.22;;
50585;SDS011;36542;51.700;8.846;2023-08-21T12:33:41;8.95;;;3.72;;
50585;SDS011;36542;51.700;8.846;2023-08-21T12:36:06;3.60;;;3.13;;
50585;SDS011;36542;51.700;8.846;2023-08-21T12:38:35;5.07;;;2.83;;
50585;SDS011;36542;51.700;8.846;2023-08-21T12:41:03;4.60;;;2.53;;
50585;SDS011;36542;51.700;8.846;2023-08-21T12:43:29;6.28;;;3.22;;
50585;SDS011;36542;51.700;8.846;2023-08-21T12:45:55;4.10;;;2.63;;
50585;SDS011;36542;51.700;8.846;2023-08-21T12:48:21;5.15;;;3.10;;
50585;SDS011;36542;51.700;8.846;2023-08-21T12:50:47;5.95;;;2.67;;
50585;SDS011;36542;51.700;8.846;2023-08-21T12:53:12;5.75;;;3.30;;
50585;SDS011;36542;51.700;8.846;2023-08-21T12:55:38;7.50;;;2.90;;
50585;SDS011;36542;51.700;8.846;2023-08-21T12:58:03;6.50;;;2.92;;
50585;SDS011;36542;51.700;8.846;2023-08-21T13:00:31;3.67;;;2.70;;
50585;SDS011;36542;51.700;8.846;2023-08-21T13:03:00;6.70;;;2.97;;
50585;SDS011;36542;51.700;8.846;2023-08-21T13:05:25;5.82;;;3.17;;
50585;SDS011;36542;51.700;8.846;2023-08-21T13:07:51;5.00;;;2.80;;
50585;SDS011;36542;51.700;8.846;2023-08-21T13:10:17;6.75;;;3.20;;
50585;SDS011;36542;51.700;8.846;2023-08-21T13:12:43;3.78;;;3.00;;
50585;SDS011;36542;51.700;8.846;2023-08-21T13:15:08;6.90;;;3.72;;
50585;SDS011;36542;51.700;8.846;2023-08-21T13:17:34;6.47;;;3.13;;
50585;SDS011;36542;51.700;8.846;2023-08-21T13:20:00;7.50;;;2.90;;
50585;SDS011;36542;51.700;8.846;2023-08-21T13:22:26;4.40;;;3.03;;
50585;SDS011;36542;51.700;8.846;2023-08-21T13:24:52;4.15;;;2.97;;
50585;SDS011;36542;51.700;8.846;2023-08-21T13:27:17;6.68;;;3.25;;
50585;SDS011;36542;51.700;8.846;2023-08-21T13:29:43;3.67;;;3.13;;
50585;SDS011;36542;51.700;8.846;2023-08-21T13:32:09;5.75;;;2.88;;
50585;SDS011;36542;51.700;8.846;2023-08-21T13:34:35;5.28;;;2.65;;
50585;SDS011;36542;51.700;8.846;2023-08-21T13:37:01;6.32;;;3.05;;
50585;SDS011;36542;51.700;8.846;2023-08-21T13:39:28;6.45;;;3.05;;
50585;SDS011;36542;51.700;8.846;2023-08-21T13:41:55;5.93;;;3.03;;
50585;SDS011;36542;51.700;8.846;2023-08-21T13:44:21;4.13;;;3.05;;
50585;SDS011;36542;51.700;8.846;2023-08-21T13:46:47;5.38;;;2.83;;
50585;SDS011;36542;51.700;8.846;2023-08-21T13:49:12;3.78;;;3.38;;
50585;SDS011;36542;51.700;8.846;2023-08-21T13:51:38;3.95;;;2.67;;
50585;SDS011;36542;51.700;8.846;2023-08-21T13:54:03;4.65;;;2.63;;
50585;SDS011;36542;51.700;8.846;2023-08-21T13:56:29;5.40;;;3.28;;
50585;SDS011;36542;51.700;8.846;2023-08-21T13:58:54;3.58;;;3.03;;
50585;SDS011;36542;51.700;8.846;2023-08-21T14:01:20;5.18;;;2.70;;
50585;SDS011;36542;51.700;8.846;2023-08-21T14:03:45;5.82;;;3.20;;
50585;SDS011;36542;51.700;8.846;2023-08-21T14:06:11;4.78;;;3.08;;
50585;SDS011;36542;51.700;8.846;2023-08-21T14:08:37;5.30;;;2.80;;
50585;SDS011;36542;51.700;8.846;2023-08-21T14:11:03;5.80;;;3.15;;
50585;SDS011;36542;51.700;8.846;2023-08-21T14:13:28;5.72;;;2.75;;
50585;SDS011;36542;51.700;8.846;2023-08-21T14:15:54;3.83;;;2.80;;
50585;SDS011;36542;51.700;8.846;2023-08-21T14:18:20;6.07;;;3.08;;
50585;SDS011;36542;51.700;8.846;2023-08-21T14:20:45;5.78;;;2.70;;
50585;SDS011;36542;51.700;8.846;2023-08-21T14:23:11;4.97;;;2.90;;
50585;SDS011;36542;51.700;8.846;2023-08-21T14:25:36;3.17;;;2.88;;
50585;SDS011;36542;51.700;8.846;2023-08-21T14:28:02;3.45;;;2.38;;
50585;SDS011;36542;51.700;8.846;2023-08-21T14:30:28;3.55;;;2.83;;
50585;SDS011;36542;51.700;8.846;2023-08-21T14:32:54;4.70;;;3.15;;
50585;SDS011;36542;51.700;8.846;2023-08-21T14:35:19;4.57;;;2.85;;
50585;SDS011;36542;51.700;8.846;2023-08-21T14:37:45;4.07;;;2.80;;
50585;SDS011;36542;51.700;8.846;2023-08-21T14:40:10;5.75;;;2.72;;
50585;SDS011;36542;51.700;8.846;2023-08-21T14:42:36;4.63;;;2.92;;
50585;SDS011;36542;51.700;8.846;2023-08-21T14:45:02;4.00;;;2.67;;
50585;SDS011;36542;51.700;8.846;2023-08-21T14:47:29;4.10;;;2.72;;
50585;SDS011;36542;51.700;8.846;2023-08-21T14:49:54;5.47;;;3.30;;
50585;SDS011;36542;51.700;8.846;2023-08-21T14:52:20;5.63;;;3.42;;
50585;SDS011;36542;51.700;8.846;2023-08-21T14:54:47;7.80;;;3.13;;
50585;SDS011;36542;51.700;8.846;2023-08-21T14:57:15;4.88;;;3.00;;
50585;SDS011;36542;51.700;8.846;2023-08-21T14:59:40;4.25;;;3.28;;